Aérodrome :
LOGIN :

S'inscrire | Disclaimer

   EN    FR    IT 

 










Légende :    VFR   VFR Marginal   IFR   IFR Intensif   IFR Très Intensif
Visi : 
Plafond : 
>= 8 km
>= 3000ft
5 à 8 km
1000 à 3000 ft
1500m à 5 km
500 à 1000 ft
800 à 1500m
200 à 500 ft
< 800m
< 200 ft
Symboles :   Orages  Brouillard  Fortes neiges  Fortes précipitations  Vent > 20 kt
SIGMETs :   Divers  Orages  Givrage  Turbulence  Onde Orograph.  Cendres Volcan.






- Altitude de l'aérodrome : -15 ft
- Code IATA : RTM


EHRD - Rotterdam Zestienhoven

DERNIER METAR :
  • 182125Z AUTO 22020KT 190V250 9999 BKN018 BKN021 OVC025 08/05 Q1013 TEMPO 6000

METARs EXPIRÉS :
  • 182055Z AUTO 22024G38KT 180V250 9999 BKN018 OVC022 08/05 Q1014 NOSIG
  • 182025Z AUTO 22019KT 190V250 9999 SCT017 OVC021 08/05 Q1014 NOSIG
  • 181955Z AUTO 22020KT 190V250 9999 FEW015CB BKN016 BKN021 OVC026 08/05 Q1015 REDZ NOSIG
  • 181925Z AUTO 22021G31KT 190V250 9999 -RA FEW015CB BKN020 OVC026 08/05 Q1015 NOSIG
  • 181855Z AUTO 22019KT 190V250 9999 BKN021 OVC025 08/05 Q1015 NOSIG

TAF TAF EHRD
Valide du 18 à 18h jusqu'au 20 à 00h UTC


181713Z 1818/1924 22021G31KT 9999 SCT025 BKN040
BECMG 1820/1822 6000 -RA BKN018
TEMPO 1821/1824 24025G38KT 4000 SHRA RA BKN014 SCT018CB
BECMG 1822/1901 29017KT 9999 NSW SCT025
BECMG 1911/1914 26018KT
BECMG 1915/1918 23012KT
BECMG 1918/1921 6000 -RADZ BKN014
TEMPO 1920/1924 4000 RADZ BKN009



MET'MAP, la Météo Aéronautique d'un coup d'oeil ! - Copyright ORBIFLY Décembre 2007 - Disclaimer

ORBIFLY MET'MAP TEAM :

Programmation & Développement : Alexandra Zaïnal
Sur une idée originale de : Baudouin d'Aumeries
Assistance à la programmation : Marc-Olivier Méhu
Soutien technique & logistique : Manuel Goepfert

Contact : metmap@orbifly.com




SOURCES & CREDITS :

   NOAA